Time;durP1;ratioP1;P1;durP2;ratioP2;P2;SDS_P1;SDS_P2;PMS_P1;PMS_P2;Temp;Humidity;BMP_temperature;BMP_pressure;BME280_temperature;BME280_humidity;BME280_pressure;Samples;Min_cycle;Max_cycle;Signal;HPM_P1;HPM_P2
2023/10/05 00:04:46;;;;;;;8.70;4.70;;;16.90;99.90;;;;;;10290377;28;20218;-89
2023/10/05 00:09:49;;;;;;;3.33;3.03;;;16.70;99.90;;;;;;10308806;28;20830;-88
2023/10/05 00:15:14;;;;;;;4.05;2.60;;;16.80;99.90;;;;;;10308406;28;20186;-88
2023/10/05 00:20:37;;;;;;;3.40;3.05;;;17.00;99.90;;;;;;10308759;28;20226;-88
2023/10/05 00:25:40;;;;;;;12.35;5.50;;;16.80;99.90;;;;;;10285082;28;20214;-88
2023/10/05 00:30:43;;;;;;;7.97;4.55;;;16.60;99.90;;;;;;10296702;28;20210;-88
2023/10/05 00:35:45;;;;;;;5.97;3.88;;;16.40;99.90;;;;;;10277418;28;20230;-88
2023/10/05 00:41:01;;;;;;;6.28;3.42;;;16.40;99.90;;;;;;10277781;28;20214;-88
2023/10/05 00:46:06;;;;;;;6.00;3.00;;;16.20;99.90;;;;;;10285848;28;20209;-88
2023/10/05 00:51:14;;;;;;;4.53;2.78;;;16.00;99.90;;;;;;10299757;28;20210;-88
2023/10/05 00:56:18;;;;;;;7.95;4.80;;;16.30;99.90;;;;;;10286379;28;20230;-88
2023/10/05 01:01:27;;;;;;;6.72;3.55;;;16.70;99.90;;;;;;10262872;28;20552;-88
2023/10/05 01:06:54;;;;;;;7.40;3.53;;;16.60;99.90;;;;;;10240000;29;20911;-88
2023/10/05 01:12:21;;;;;;;9.02;5.50;;;16.60;99.90;;;;;;10247224;29;20674;-88
2023/10/05 01:17:27;;;;;;;6.47;3.80;;;16.60;99.90;;;;;;10196592;29;20211;-88
2023/10/05 01:22:36;;;;;;;3.33;2.35;;;16.00;99.90;;;;;;10234802;29;20226;-88
2023/10/05 01:27:40;;;;;;;4.90;3.30;;;16.00;99.90;;;;;;10257486;29;20198;-88
2023/10/05 01:32:44;;;;;;;5.53;3.10;;;16.30;99.90;;;;;;10240028;29;20202;-88
2023/10/05 01:37:51;;;;;;;4.72;3.50;;;16.30;99.90;;;;;;10238359;29;20214;-88
2023/10/05 01:42:54;;;;;;;7.93;4.70;;;16.20;99.90;;;;;;10256653;29;20242;-88
2023/10/05 01:48:12;;;;;;;10.00;5.75;;;15.30;99.90;;;;;;10246224;29;20203;-87
2023/10/05 01:53:15;;;;;;;8.73;5.45;;;14.80;99.90;;;;;;10254109;29;20210;-87
2023/10/05 01:58:25;;;;;;;4.93;3.10;;;14.80;99.90;;;;;;10255120;29;20624;-88
2023/10/05 02:03:27;;;;;;;6.47;3.35;;;14.90;99.90;;;;;;10234987;29;20693;-87
2023/10/05 02:08:35;;;;;;;5.22;3.47;;;14.40;99.90;;;;;;10238545;29;20215;-88
2023/10/05 02:13:37;;;;;;;7.65;4.35;;;14.90;99.90;;;;;;10215281;29;20253;-87
2023/10/05 02:18:40;;;;;;;9.45;4.60;;;15.10;99.90;;;;;;10239346;29;20281;-88
2023/10/05 02:23:44;;;;;;;2.97;2.63;;;15.00;99.90;;;;;;10221476;29;20230;-88
2023/10/05 02:28:46;;;;;;;7.95;4.30;;;15.00;99.90;;;;;;10246522;28;20211;-88
2023/10/05 02:33:52;;;;;;;7.93;4.53;;;15.20;99.90;;;;;;10241449;29;20218;-88
2023/10/05 02:39:00;;;;;;;8.68;5.50;;;14.80;99.90;;;;;;10254021;29;20210;-87
2023/10/05 02:44:28;;;;;;;6.97;4.70;;;15.30;99.90;;;;;;10212939;29;20302;-87
2023/10/05 02:49:31;;;;;;;7.75;4.93;;;15.00;99.90;;;;;;10192142;29;20675;-88
2023/10/05 02:54:36;;;;;;;6.28;4.28;;;15.20;99.90;;;;;;10196323;29;20254;-88
2023/10/05 02:59:40;;;;;;;8.85;4.57;;;14.70;99.90;;;;;;10163042;29;20215;-87
2023/10/05 03:04:47;;;;;;;7.57;3.85;;;14.60;99.90;;;;;;10198959;29;20276;-87
2023/10/05 03:09:59;;;;;;;4.25;2.95;;;15.20;99.90;;;;;;10195294;29;20586;-87
2023/10/05 03:15:09;;;;;;;11.70;4.70;;;15.00;99.90;;;;;;10166692;29;20215;-87
2023/10/05 03:20:18;;;;;;;6.55;4.68;;;14.90;99.90;;;;;;10194214;29;20270;-87
2023/10/05 03:25:22;;;;;;;7.55;4.65;;;14.60;99.90;;;;;;10180157;29;20282;-87
2023/10/05 03:30:30;;;;;;;7.53;4.82;;;14.90;99.90;;;;;;10175402;29;20259;-87
2023/10/05 03:35:33;;;;;;;9.13;4.72;;;14.50;99.90;;;;;;10188493;29;20242;-87
2023/10/05 03:40:36;;;;;;;3.50;3.00;;;14.60;99.90;;;;;;10201156;29;20242;-87
2023/10/05 03:45:39;;;;;;;8.85;4.00;;;14.40;99.90;;;;;;10231904;29;20987;-87
2023/10/05 03:50:42;;;;;;;6.45;3.38;;;14.80;99.90;;;;;;10229717;29;20689;-87
2023/10/05 03:55:47;;;;;;;6.20;3.70;;;14.70;99.90;;;;;;10247606;29;20269;-88
2023/10/05 04:00:49;;;;;;;5.93;3.63;;;14.70;99.90;;;;;;10217536;29;20661;-87
2023/10/05 04:05:53;;;;;;;3.97;2.75;;;15.10;99.90;;;;;;10233861;29;20281;-87
2023/10/05 04:10:59;;;;;;;6.45;4.07;;;15.40;99.90;;;;;;10230699;29;20230;-87
2023/10/05 04:16:06;;;;;;;6.07;3.55;;;15.80;99.90;;;;;;10234113;29;20281;-87
2023/10/05 04:21:10;;;;;;;5.30;3.65;;;15.40;99.90;;;;;;10249284;29;20230;-87
2023/10/05 04:26:12;;;;;;;3.55;2.75;;;15.30;99.90;;;;;;10249509;29;20286;-87
2023/10/05 04:31:16;;;;;;;5.97;3.00;;;15.40;99.90;;;;;;10249971;29;20250;-87
2023/10/05 04:36:22;;;;;;;4.28;2.85;;;15.90;99.90;;;;;;10231961;29;20241;-86
2023/10/05 04:41:28;;;;;;;4.50;2.78;;;16.00;99.90;;;;;;10249706;29;20253;-87
2023/10/05 04:46:31;;;;;;;5.43;3.13;;;16.20;99.90;;;;;;10248252;29;20680;-87
2023/10/05 04:51:38;;;;;;;6.22;3.20;;;16.20;99.90;;;;;;10230154;29;20939;-86
2023/10/05 05:07:00;;;;;;;6.75;4.05;;;16.20;99.90;;;;;;10249124;29;20316;-87
2023/10/05 05:12:05;;;;;;;2.95;1.83;;;16.20;99.90;;;;;;10247848;29;20621;-87
2023/10/05 05:17:10;;;;;;;3.97;2.72;;;16.80;99.90;;;;;;10234809;29;20235;-87
2023/10/05 05:22:13;;;;;;;6.75;3.90;;;16.90;99.90;;;;;;10248707;28;20332;-86
2023/10/05 05:32:19;;;;;;;5.90;2.13;;;17.30;99.90;;;;;;10248708;29;20238;-87
2023/10/05 05:37:28;;;;;;;6.80;3.35;;;18.20;99.90;;;;;;10248844;29;20246;-86
2023/10/05 05:42:34;;;;;;;9.68;4.10;;;18.10;96.50;;;;;;10230104;29;20266;-87
2023/10/05 05:47:37;;;;;;;6.45;3.33;;;18.40;90.50;;;;;;10206941;29;20251;-87
2023/10/05 05:52:47;;;;;;;6.40;3.53;;;18.20;86.40;;;;;;10176575;29;20348;-87
2023/10/05 05:57:52;;;;;;;7.25;2.63;;;18.00;86.70;;;;;;10191382;29;20679;-86
2023/10/05 06:02:55;;;;;;;7.53;3.95;;;17.80;90.50;;;;;;10208765;29;20254;-86
2023/10/05 06:08:01;;;;;;;6.65;2.83;;;17.80;87.70;;;;;;10245155;28;20230;-85
2023/10/05 06:13:06;;;;;;;8.77;3.17;;;18.30;84.30;;;;;;10245356;29;20970;-85
2023/10/05 06:18:09;;;;;;;7.68;2.60;;;18.50;84.50;;;;;;10240825;29;20234;-85
2023/10/05 06:23:12;;;;;;;3.38;2.55;;;18.40;85.90;;;;;;10247312;29;20338;-85
2023/10/05 06:28:15;;;;;;;5.60;2.78;;;18.40;80.30;;;;;;10246540;29;20230;-85
2023/10/05 06:33:18;;;;;;;6.35;2.88;;;18.40;80.10;;;;;;10214389;29;20940;-85
2023/10/05 06:38:21;;;;;;;3.97;2.78;;;18.90;86.20;;;;;;10202196;29;20247;-85
2023/10/05 06:43:26;;;;;;;6.57;2.90;;;18.60;84.40;;;;;;10190047;29;20289;-85
2023/10/05 06:48:30;;;;;;;3.85;2.17;;;19.20;84.80;;;;;;10217919;29;20323;-85
2023/10/05 06:53:32;;;;;;;8.75;3.03;;;19.40;78.90;;;;;;10242469;29;20226;-86
2023/10/05 06:58:35;;;;;;;5.30;2.88;;;19.30;79.00;;;;;;10224016;29;20238;-85
2023/10/05 07:03:38;;;;;;;5.05;2.60;;;19.20;83.30;;;;;;10235514;29;20261;-85
2023/10/05 07:08:41;;;;;;;5.97;2.40;;;19.30;85.60;;;;;;10228703;29;20276;-85
2023/10/05 07:13:46;;;;;;;5.97;2.95;;;19.50;80.90;;;;;;10229752;29;20269;-85
2023/10/05 07:18:49;;;;;;;5.07;2.42;;;19.00;79.20;;;;;;10252788;29;20946;-86
2023/10/05 07:23:51;;;;;;;3.53;1.98;;;20.20;86.00;;;;;;10219220;29;20704;-85
2023/10/05 07:28:54;;;;;;;5.80;2.90;;;20.00;88.40;;;;;;10228770;29;20241;-84
2023/10/05 07:33:57;;;;;;;5.95;2.63;;;19.70;82.70;;;;;;10224936;29;20237;-84
2023/10/05 07:39:00;;;;;;;3.03;1.98;;;19.90;88.20;;;;;;10250480;29;20292;-84
2023/10/05 07:44:03;;;;;;;6.40;2.20;;;20.60;81.50;;;;;;10251491;29;20313;-84
2023/10/05 07:49:10;;;;;;;4.72;2.72;;;20.20;79.30;;;;;;10251403;29;20296;-85
2023/10/05 07:54:12;;;;;;;8.35;2.55;;;20.30;78.20;;;;;;10251194;29;20257;-85
2023/10/05 07:59:15;;;;;;;6.95;2.78;;;20.30;76.80;;;;;;10246129;29;20234;-84
2023/10/05 08:04:18;;;;;;;7.07;2.25;;;20.00;73.00;;;;;;10249970;29;20254;-85
2023/10/05 08:09:21;;;;;;;2.50;1.55;;;19.90;78.70;;;;;;10241776;29;20234;-84
2023/10/05 08:14:24;;;;;;;3.58;1.63;;;19.90;75.00;;;;;;10234393;29;20234;-85
2023/10/05 08:19:28;;;;;;;4.97;3.35;;;20.00;82.10;;;;;;10251848;29;20253;-84
2023/10/05 08:24:31;;;;;;;4.63;2.35;;;20.10;74.50;;;;;;10250787;28;20261;-84
2023/10/05 08:29:39;;;;;;;7.57;3.83;;;20.50;95.30;;;;;;10233397;29;20784;-84
2023/10/05 08:34:44;;;;;;;2.80;1.65;;;20.50;92.00;;;;;;10250822;29;20273;-85
2023/10/05 08:39:48;;;;;;;7.65;3.85;;;20.80;92.70;;;;;;10232320;28;20237;-84
2023/10/05 08:44:50;;;;;;;5.80;2.40;;;20.30;89.30;;;;;;10234570;29;20713;-85
2023/10/05 08:49:54;;;;;;;5.97;3.35;;;20.70;92.90;;;;;;10213371;29;20242;-84
2023/10/05 08:54:56;;;;;;;4.93;2.92;;;20.70;94.20;;;;;;10209575;29;20658;-85
2023/10/05 08:59:59;;;;;;;4.28;2.05;;;20.80;93.10;;;;;;10237651;29;20238;-85
2023/10/05 09:05:07;;;;;;;2.92;1.63;;;20.80;93.10;;;;;;10236737;29;20253;-85
2023/10/05 09:10:24;;;;;;;1.67;1.15;;;21.30;92.50;;;;;;10229516;29;20288;-84
2023/10/05 09:15:28;;;;;;;8.00;3.58;;;21.40;93.20;;;;;;10247998;29;20229;-85
2023/10/05 09:20:36;;;;;;;3.25;1.90;;;20.80;83.30;;;;;;10230166;29;20242;-85
2023/10/05 09:25:45;;;;;;;4.18;2.78;;;21.10;94.20;;;;;;10207054;29;20262;-85
2023/10/05 09:30:56;;;;;;;6.90;2.53;;;20.90;94.00;;;;;;10246883;29;20230;-85
2023/10/05 09:36:16;;;;;;;3.17;1.33;;;20.80;94.30;;;;;;10231246;28;20645;-84
2023/10/05 09:41:25;;;;;;;4.22;2.33;;;21.50;95.30;;;;;;10230921;29;20241;-85
2023/10/05 09:46:33;;;;;;;2.83;1.92;;;;;;;;;;10247941;29;20655;-84
2023/10/05 09:51:42;;;;;;;2.67;1.83;;;;;;;;;;10247598;29;20671;-84
2023/10/05 09:56:47;;;;;;;8.07;3.33;;;;;;;;;;10230448;29;20285;-84
2023/10/05 10:01:50;;;;;;;5.50;2.95;;;21.40;93.80;;;;;;10245939;29;20237;-84
2023/10/05 10:06:53;;;;;;;4.40;1.65;;;21.50;62.40;;;;;;10229665;29;20258;-84
2023/10/05 10:12:00;;;;;;;6.20;3.28;;;21.40;70.50;;;;;;10227231;29;20270;-84
2023/10/05 10:17:08;;;;;;;7.28;2.65;;;21.60;65.20;;;;;;10237238;29;20234;-84
2023/10/05 10:22:12;;;;;;;3.78;2.35;;;22.30;70.50;;;;;;10225613;29;20234;-84
2023/10/05 10:27:27;;;;;;;4.55;1.73;;;21.80;62.50;;;;;;10240325;29;20257;-84
2023/10/05 10:32:32;;;;;;;3.95;2.67;;;21.60;70.60;;;;;;10226852;29;20238;-84
2023/10/05 10:37:40;;;;;;;6.65;2.63;;;21.30;68.90;;;;;;10211636;29;20226;-84
2023/10/05 10:42:55;;;;;;;7.82;2.10;;;21.60;68.60;;;;;;10244097;29;20646;-84
2023/10/05 10:47:57;;;;;;;4.20;2.30;;;21.30;69.70;;;;;;10245270;28;20631;-84
2023/10/05 10:53:05;;;;;;;7.97;2.60;;;21.60;69.20;;;;;;10263262;28;20234;-84
2023/10/05 10:58:13;;;;;;;8.07;3.35;;;21.30;71.00;;;;;;10243491;29;20230;-84
2023/10/05 11:03:17;;;;;;;8.43;3.80;;;21.30;62.90;;;;;;10212810;29;20253;-84
2023/10/05 11:08:20;;;;;;;2.42;1.33;;;21.40;65.60;;;;;;10246193;29;20257;-84
2023/10/05 11:13:24;;;;;;;4.85;2.78;;;21.30;72.80;;;;;;10245010;29;20237;-84
2023/10/05 11:18:31;;;;;;;4.97;2.65;;;21.30;70.70;;;;;;10242843;29;20715;-84
2023/10/05 11:23:55;;;;;;;3.13;1.60;;;21.20;69.50;;;;;;10193696;29;20262;-84
2023/10/05 11:28:59;;;;;;;3.30;2.15;;;21.30;62.90;;;;;;10237535;29;20242;-84
2023/10/05 11:34:09;;;;;;;3.55;2.38;;;21.30;69.60;;;;;;10229501;29;20312;-84
2023/10/05 11:39:39;;;;;;;6.07;2.50;;;21.50;69.70;;;;;;10244164;29;20246;-84
2023/10/05 11:44:44;;;;;;;4.40;2.55;;;21.50;70.80;;;;;;10244421;29;20521;-84
2023/10/05 11:49:47;;;;;;;3.45;1.83;;;21.10;67.80;;;;;;10221900;29;20281;-85
2023/10/05 11:54:53;;;;;;;5.50;2.80;;;21.10;71.40;;;;;;10238695;29;20695;-85
2023/10/05 11:59:59;;;;;;;5.72;2.10;;;20.90;66.00;;;;;;10249628;28;20241;-85
2023/10/05 12:05:05;;;;;;;10.52;3.08;;;20.70;66.90;;;;;;10246074;28;20261;-85
2023/10/05 12:10:11;;;;;;;6.38;2.80;;;20.30;71.10;;;;;;10232758;29;20263;-85
2023/10/05 12:15:17;;;;;;;4.32;2.30;;;19.80;73.30;;;;;;10224170;29;20697;-85
2023/10/05 12:20:21;;;;;;;4.30;2.72;;;19.90;82.70;;;;;;10231717;29;20610;-85
2023/10/05 12:25:27;;;;;;;2.38;1.55;;;20.00;78.10;;;;;;10232319;28;20285;-85
2023/10/05 12:30:31;;;;;;;3.58;2.17;;;20.10;81.70;;;;;;10264900;28;20226;-85
2023/10/05 12:35:36;;;;;;;3.85;2.47;;;20.10;80.20;;;;;;10246703;28;20276;-85
2023/10/05 12:40:41;;;;;;;5.82;2.55;;;20.10;79.20;;;;;;10267142;28;20280;-85
2023/10/05 12:45:44;;;;;;;6.90;2.58;;;20.10;80.30;;;;;;10261320;28;20293;-85
2023/10/05 12:50:47;;;;;;;4.85;2.65;;;19.90;78.40;;;;;;10234860;29;20238;-85
2023/10/05 12:55:50;;;;;;;4.78;2.33;;;20.10;80.80;;;;;;10249257;29;20641;-85
2023/10/05 13:00:53;;;;;;;6.88;2.47;;;20.10;79.90;;;;;;10245912;29;20253;-85
2023/10/05 13:05:56;;;;;;;6.85;3.33;;;19.90;80.60;;;;;;10228827;29;20637;-85
2023/10/05 13:10:59;;;;;;;4.25;2.67;;;19.70;81.90;;;;;;10246585;28;20281;-84
2023/10/05 13:16:13;;;;;;;4.00;2.50;;;19.60;85.30;;;;;;10232664;29;20241;-85
2023/10/05 13:21:16;;;;;;;6.32;2.55;;;19.70;86.20;;;;;;10207507;29;20298;-84
2023/10/05 13:26:19;;;;;;;6.97;2.42;;;19.90;84.70;;;;;;10209229;29;20282;-84
2023/10/05 13:31:25;;;;;;;3.83;2.30;;;20.10;85.00;;;;;;10239198;29;20234;-84
2023/10/05 13:36:27;;;;;;;6.45;2.90;;;20.00;84.00;;;;;;10231898;29;20974;-84
2023/10/05 13:41:35;;;;;;;4.53;2.42;;;19.90;84.20;;;;;;10246746;29;20644;-84
2023/10/05 13:46:44;;;;;;;2.97;1.67;;;19.60;86.50;;;;;;10243021;29;20312;-85
2023/10/05 13:51:50;;;;;;;3.50;2.30;;;19.50;89.70;;;;;;10277794;28;20673;-84
2023/10/05 13:56:53;;;;;;;5.20;2.38;;;19.90;87.40;;;;;;10214278;29;20246;-84
2023/10/05 14:02:00;;;;;;;5.90;2.10;;;19.70;88.20;;;;;;10245644;29;20238;-85
2023/10/05 14:07:07;;;;;;;3.90;1.77;;;19.40;90.80;;;;;;10244620;29;20245;-84
2023/10/05 14:12:12;;;;;;;3.47;2.15;;;19.30;91.60;;;;;;10238267;29;20230;-85
2023/10/05 14:17:14;;;;;;;5.53;3.05;;;19.10;91.80;;;;;;10231195;29;20706;-85
2023/10/05 14:22:18;;;;;;;4.90;2.33;;;18.80;91.70;;;;;;10243637;28;20289;-84
2023/10/05 14:27:28;;;;;;;3.67;2.17;;;19.10;92.40;;;;;;10247029;29;20340;-84
2023/10/05 14:32:44;;;;;;;6.25;3.03;;;19.30;92.50;;;;;;10236977;29;20242;-85
2023/10/05 14:37:52;;;;;;;4.95;2.38;;;19.40;91.30;;;;;;10226557;29;20230;-85
2023/10/05 14:42:55;;;;;;;8.02;3.65;;;19.40;91.90;;;;;;10243537;29;20253;-85
2023/10/05 14:48:04;;;;;;;23.08;3.75;;;19.80;89.80;;;;;;10243467;28;20257;-85
2023/10/05 14:53:11;;;;;;;6.82;3.55;;;18.60;92.00;;;;;;10228585;29;20234;-85
2023/10/05 14:58:14;;;;;;;7.45;4.00;;;18.30;93.30;;;;;;10208238;29;20238;-85
2023/10/05 15:03:17;;;;;;;6.00;4.28;;;18.10;93.80;;;;;;10228192;29;20279;-85
2023/10/05 15:08:20;;;;;;;11.85;3.70;;;17.30;95.90;;;;;;10221644;29;20257;-84
2023/10/05 15:13:24;;;;;;;3.63;2.67;;;16.70;97.80;;;;;;10245694;29;20253;-84
2023/10/05 15:18:29;;;;;;;4.45;2.55;;;16.20;99.90;;;;;;10245825;29;20237;-84
2023/10/05 15:23:31;;;;;;;4.82;2.90;;;15.80;99.90;;;;;;10227655;29;20250;-83
2023/10/05 15:28:35;;;;;;;3.25;1.92;;;15.90;99.90;;;;;;10243883;29;20324;-86
2023/10/05 15:33:37;;;;;;;4.32;2.40;;;16.50;99.90;;;;;;10207413;29;20293;-86
2023/10/05 15:38:40;;;;;;;6.75;2.45;;;17.60;97.60;;;;;;10214508;29;20638;-86
2023/10/05 15:43:43;;;;;;;4.40;2.25;;;18.00;95.70;;;;;;10235443;29;20289;-86
2023/10/05 15:48:45;;;;;;;4.30;2.17;;;18.30;94.20;;;;;;9893057;28;10000549;-86
2023/10/05 15:53:56;;;;;;;4.18;2.47;;;18.60;93.50;;;;;;10249143;29;20776;-86
2023/10/05 15:59:02;;;;;;;6.20;2.08;;;19.00;91.60;;;;;;10225980;28;20270;-86
2023/10/05 16:04:09;;;;;;;3.25;1.75;;;19.20;90.90;;;;;;10234567;29;20657;-86
2023/10/05 16:09:15;;;;;;;3.05;1.88;;;19.30;90.80;;;;;;10251813;29;20242;-86
2023/10/05 16:14:18;;;;;;;7.15;5.35;;;19.20;90.90;;;;;;10234635;29;20237;-86
2023/10/05 16:19:20;;;;;;;2.15;1.05;;;19.30;89.20;;;;;;10249994;29;20296;-84
2023/10/05 16:24:24;;;;;;;4.43;2.75;;;19.30;90.50;;;;;;10221719;29;20250;-87
2023/10/05 16:29:27;;;;;;;5.70;2.70;;;19.50;90.20;;;;;;10234002;29;20402;-89
2023/10/05 16:34:33;;;;;;;7.53;3.25;;;19.70;90.30;;;;;;10235606;29;20690;-88
2023/10/05 16:39:36;;;;;;;6.47;2.05;;;19.50;92.00;;;;;;10219110;29;20258;-88
2023/10/05 16:44:41;;;;;;;6.63;3.22;;;19.60;93.50;;;;;;10232109;28;20320;-89
2023/10/05 16:49:44;;;;;;;3.78;2.80;;;19.20;94.20;;;;;;10234345;29;20297;-89
2023/10/05 16:54:47;;;;;;;3.50;2.83;;;19.40;96.30;;;;;;10251572;29;20269;-89
2023/10/05 16:59:50;;;;;;;6.88;3.63;;;19.20;96.90;;;;;;10251925;29;20267;-89
2023/10/05 17:04:54;;;;;;;5.85;2.92;;;19.00;96.00;;;;;;10248918;29;20246;-89
2023/10/05 17:09:56;;;;;;;8.32;3.80;;;19.00;98.50;;;;;;10232808;29;20222;-89
2023/10/05 17:14:59;;;;;;;7.00;3.72;;;18.90;98.60;;;;;;10232583;29;20715;-90
2023/10/05 17:20:03;;;;;;;3.95;2.80;;;18.80;99.90;;;;;;10248595;29;20245;-90
2023/10/05 17:25:07;;;;;;;4.70;3.40;;;18.60;99.90;;;;;;10217496;29;20716;-90
2023/10/05 17:30:13;;;;;;;7.53;4.20;;;18.40;99.90;;;;;;10229260;29;20234;-90
2023/10/05 17:35:21;;;;;;;3.72;2.85;;;18.10;99.90;;;;;;10230001;28;20908;-89
2023/10/05 17:40:25;;;;;;;4.85;3.38;;;18.00;99.90;;;;;;10237637;28;20689;-89
2023/10/05 17:45:27;;;;;;;4.78;3.40;;;18.50;99.90;;;;;;10202753;29;20967;-89
2023/10/05 17:50:30;;;;;;;6.47;3.53;;;18.80;99.90;;;;;;10214876;29;20259;-89
2023/10/05 17:55:38;;;;;;;5.93;3.72;;;19.00;99.90;;;;;;10239495;28;20262;-89
2023/10/05 18:00:42;;;;;;;5.32;2.80;;;19.00;99.90;;;;;;10225234;29;20371;-89
2023/10/05 18:05:47;;;;;;;4.43;2.95;;;19.00;99.90;;;;;;10215634;29;20292;-89
2023/10/05 18:10:53;;;;;;;5.15;3.35;;;19.20;99.90;;;;;;10237312;29;20602;-89
2023/10/05 18:15:56;;;;;;;3.00;2.22;;;19.30;99.90;;;;;;10235177;29;20250;-88
2023/10/05 18:20:59;;;;;;;3.88;2.40;;;19.50;99.90;;;;;;10247632;29;20647;-89
2023/10/05 18:26:01;;;;;;;3.75;2.92;;;19.70;99.90;;;;;;10216427;29;20689;-89
2023/10/05 18:31:04;;;;;;;4.53;2.95;;;19.60;99.90;;;;;;10220958;29;20215;-88
2023/10/05 18:36:07;;;;;;;4.05;3.03;;;19.20;99.90;;;;;;10209507;29;20261;-89
2023/10/05 18:41:10;;;;;;;4.50;3.13;;;19.30;99.90;;;;;;10231269;29;20233;-89
2023/10/05 18:51:58;;;;;;;3.80;2.75;;;19.20;99.30;;;;;;9073728;23;10001342;-89
2023/10/05 18:57:01;;;;;;;3.85;2.20;;;19.00;99.90;;;;;;10243185;29;20633;-89
2023/10/05 19:02:05;;;;;;;4.30;3.05;;;19.00;99.90;;;;;;10246357;28;20621;-89
2023/10/05 19:07:11;;;;;;;3.35;2.97;;;19.00;99.90;;;;;;10245240;28;21147;-89
2023/10/05 19:12:14;;;;;;;3.20;2.65;;;19.20;99.90;;;;;;10247271;28;20335;-89
2023/10/05 19:17:19;;;;;;;3.75;2.63;;;18.90;99.90;;;;;;10252349;29;20677;-89
2023/10/05 19:22:21;;;;;;;4.13;2.35;;;18.80;99.90;;;;;;10268166;28;20292;-91
2023/10/05 19:27:24;;;;;;;4.28;2.78;;;18.70;99.90;;;;;;10245315;28;20285;-93
2023/10/05 19:32:27;;;;;;;5.88;2.83;;;18.40;99.90;;;;;;10233455;29;20234;-91
2023/10/05 19:37:29;;;;;;;3.50;2.17;;;18.60;99.90;;;;;;10268735;28;20273;-91
2023/10/05 19:42:33;;;;;;;2.60;2.08;;;18.30;99.90;;;;;;10229043;29;20215;-92
2023/10/05 19:47:36;;;;;;;3.15;2.13;;;18.30;99.90;;;;;;10252441;28;20332;-89
2023/10/05 19:52:39;;;;;;;2.63;2.17;;;18.50;99.90;;;;;;10226055;29;20251;-89
2023/10/05 19:57:41;;;;;;;3.50;2.40;;;18.30;99.90;;;;;;10250230;29;20897;-89
2023/10/05 20:02:44;;;;;;;4.20;2.20;;;18.20;99.90;;;;;;10241672;29;20238;-90
2023/10/05 20:07:47;;;;;;;3.22;2.15;;;18.20;99.90;;;;;;10250919;29;20246;-90
2023/10/05 20:12:49;;;;;;;4.15;1.90;;;18.30;99.90;;;;;;10251127;28;20582;-89
2023/10/05 20:17:52;;;;;;;4.20;2.45;;;18.50;99.90;;;;;;10256150;29;20877;-89
2023/10/05 20:22:55;;;;;;;3.83;2.05;;;18.60;99.90;;;;;;10259425;28;20649;-89
2023/10/05 20:27:57;;;;;;;2.78;2.45;;;18.30;99.90;;;;;;10249517;28;20250;-88
2023/10/05 20:33:01;;;;;;;3.38;2.28;;;18.20;99.90;;;;;;10229518;28;20203;-89
2023/10/05 20:38:10;;;;;;;2.80;2.50;;;18.10;99.90;;;;;;10233036;28;20235;-89
2023/10/05 20:43:12;;;;;;;1.95;1.80;;;18.20;99.90;;;;;;10238249;29;20277;-89
2023/10/05 20:48:15;;;;;;;2.30;1.58;;;18.40;99.90;;;;;;10247940;28;20265;-90
2023/10/05 20:53:18;;;;;;;4.10;2.50;;;18.40;99.90;;;;;;10239753;29;20206;-89
2023/10/05 20:58:21;;;;;;;2.75;2.05;;;18.00;99.90;;;;;;10267788;28;20242;-89
2023/10/05 21:03:36;;;;;;;3.08;2.13;;;17.60;99.90;;;;;;10250480;29;20257;-89
2023/10/05 21:08:40;;;;;;;3.28;2.70;;;17.60;99.90;;;;;;10236759;29;20261;-89
2023/10/05 21:13:45;;;;;;;4.82;2.75;;;17.90;99.90;;;;;;10250683;28;20238;-88
2023/10/05 21:18:47;;;;;;;3.40;2.28;;;17.80;99.90;;;;;;10263262;28;20277;-89
2023/10/05 21:23:50;;;;;;;1.88;1.77;;;17.80;99.90;;;;;;10247318;29;20233;-89
2023/10/05 21:28:53;;;;;;;2.17;1.63;;;17.40;99.90;;;;;;10241970;29;20250;-89
2023/10/05 21:33:56;;;;;;;2.25;1.85;;;17.30;99.90;;;;;;10246859;28;20948;-88
2023/10/05 21:38:58;;;;;;;2.75;1.85;;;17.20;99.90;;;;;;10247424;29;20974;-89
2023/10/05 21:44:01;;;;;;;3.22;2.33;;;17.50;99.90;;;;;;10250833;28;20250;-88
2023/10/05 21:49:04;;;;;;;3.50;2.30;;;17.50;99.90;;;;;;10233129;28;20276;-89
2023/10/05 21:54:16;;;;;;;4.07;2.03;;;17.50;99.90;;;;;;10229964;29;20195;-88
2023/10/05 21:59:22;;;;;;;2.50;2.30;;;17.30;99.90;;;;;;10244362;28;20241;-88
2023/10/05 22:04:24;;;;;;;2.55;2.05;;;17.40;99.90;;;;;;10237509;28;20238;-88
2023/10/05 22:09:27;;;;;;;4.90;2.03;;;17.50;99.90;;;;;;10230503;29;20306;-88
2023/10/05 22:14:31;;;;;;;1.85;1.58;;;17.20;99.90;;;;;;10218589;28;20199;-89
2023/10/05 22:19:35;;;;;;;4.57;2.38;;;17.10;99.90;;;;;;10232291;29;20684;-89
2023/10/05 22:24:39;;;;;;;3.53;1.85;;;17.40;99.90;;;;;;10246800;29;20246;-88
2023/10/05 22:29:41;;;;;;;5.25;2.15;;;17.40;99.90;;;;;;10246982;28;20289;-89
2023/10/05 22:34:44;;;;;;;6.68;2.80;;;17.40;99.90;;;;;;10246787;29;20649;-89
2023/10/05 22:39:46;;;;;;;2.25;1.73;;;17.00;99.90;;;;;;10245619;28;20689;-88
2023/10/05 22:44:49;;;;;;;2.97;2.42;;;16.60;99.90;;;;;;10241543;28;20234;-88
2023/10/05 22:49:51;;;;;;;5.53;2.92;;;16.20;99.90;;;;;;10240955;29;20296;-89
2023/10/05 22:54:57;;;;;;;4.63;3.30;;;15.70;99.90;;;;;;10245380;29;20234;-89
2023/10/05 22:59:59;;;;;;;5.05;3.10;;;15.30;99.90;;;;;;10245765;28;20237;-88
2023/10/05 23:05:04;;;;;;;5.07;3.63;;;15.30;99.90;;;;;;10246506;29;20609;-90
2023/10/05 23:10:07;;;;;;;3.53;3.05;;;15.40;99.90;;;;;;10244651;29;21107;-90
2023/10/05 23:15:10;;;;;;;3.33;2.88;;;15.80;99.90;;;;;;10259191;28;20241;-89
2023/10/05 23:20:23;;;;;;;4.45;4.05;;;15.90;99.90;;;;;;10246808;29;20269;-89
2023/10/05 23:25:28;;;;;;;3.90;3.58;;;16.00;99.90;;;;;;10244426;29;20222;-90
2023/10/05 23:30:31;;;;;;;9.15;6.53;;;16.00;99.90;;;;;;10244912;28;20238;-89
2023/10/05 23:35:33;;;;;;;7.32;5.20;;;16.10;99.90;;;;;;10244597;28;20309;-89
2023/10/05 23:40:40;;;;;;;6.95;5.20;;;16.00;99.90;;;;;;10246723;29;20918;-90
2023/10/05 23:45:45;;;;;;;5.93;4.18;;;16.20;99.90;;;;;;10246845;29;20292;-90
2023/10/05 23:50:53;;;;;;;6.30;4.85;;;16.40;99.90;;;;;;10245698;29;20654;-90
2023/10/05 23:55:58;;;;;;;4.03;3.63;;;16.60;99.90;;;;;;10245135;28;20242;-90
